sensor_id;sensor_type;location;lat;lon;timestamp;pressure;altitude;pressure_sealevel;temperature;humidity
27587;BME280;15019;49.002;8.420;2022-09-17T00:01:15;99947.44;;;12.16;100.00
27587;BME280;15019;49.002;8.420;2022-09-17T00:03:43;99949.03;;;12.23;100.00
27587;BME280;15019;49.002;8.420;2022-09-17T00:06:11;99938.84;;;12.26;100.00
27587;BME280;15019;49.002;8.420;2022-09-17T00:08:40;99944.91;;;12.16;100.00
27587;BME280;15019;49.002;8.420;2022-09-17T00:11:07;99937.31;;;12.09;100.00
27587;BME280;15019;49.002;8.420;2022-09-17T00:13:36;99931.59;;;11.94;100.00
27587;BME280;15019;49.002;8.420;2022-09-17T00:16:04;99939.16;;;12.00;100.00
27587;BME280;15019;49.002;8.420;2022-09-17T00:18:30;99945.91;;;12.02;100.00
27587;BME280;15019;49.002;8.420;2022-09-17T00:20:56;99952.69;;;12.00;100.00
27587;BME280;15019;49.002;8.420;2022-09-17T00:23:25;99938.41;;;11.92;100.00
27587;BME280;15019;49.002;8.420;2022-09-17T00:25:51;99945.97;;;11.96;100.00
27587;BME280;15019;49.002;8.420;2022-09-17T00:28:17;99940.91;;;11.93;100.00
27587;BME280;15019;49.002;8.420;2022-09-17T00:30:45;99951.97;;;11.88;100.00
27587;BME280;15019;49.002;8.420;2022-09-17T00:33:14;99956.19;;;11.90;100.00
27587;BME280;15019;49.002;8.420;2022-09-17T00:35:41;99948.53;;;11.93;100.00
27587;BME280;15019;49.002;8.420;2022-09-17T00:38:06;99950.22;;;11.94;100.00
27587;BME280;15019;49.002;8.420;2022-09-17T00:40:34;99958.63;;;11.99;100.00
27587;BME280;15019;49.002;8.420;2022-09-17T00:43:00;99957.72;;;12.06;100.00
27587;BME280;15019;49.002;8.420;2022-09-17T00:45:29;99964.66;;;11.92;100.00
27587;BME280;15019;49.002;8.420;2022-09-17T00:48:03;99961.38;;;11.81;100.00
27587;BME280;15019;49.002;8.420;2022-09-17T00:50:40;99961.25;;;11.93;100.00
27587;BME280;15019;49.002;8.420;2022-09-17T00:53:10;99959.66;;;11.83;100.00
27587;BME280;15019;49.002;8.420;2022-09-17T00:58:41;99961.28;;;11.90;100.00
27587;BME280;15019;49.002;8.420;2022-09-17T01:01:06;99960.53;;;11.82;100.00
27587;BME280;15019;49.002;8.420;2022-09-17T01:03:31;99969.00;;;11.80;100.00
27587;BME280;15019;49.002;8.420;2022-09-17T01:25:22;99974.22;;;11.63;100.00
27587;BME280;15019;49.002;8.420;2022-09-17T01:31:08;99974.34;;;11.48;100.00
27587;BME280;15019;49.002;8.420;2022-09-17T01:33:56;99970.09;;;11.53;100.00
27587;BME280;15019;49.002;8.420;2022-09-17T01:37:29;99974.34;;;11.51;100.00
27587;BME280;15019;49.002;8.420;2022-09-17T01:39:54;99982.81;;;11.48;100.00
27587;BME280;15019;49.002;8.420;2022-09-17T01:45:04;99988.75;;;11.46;100.00
27587;BME280;15019;49.002;8.420;2022-09-17T01:47:42;99986.22;;;11.44;100.00
27587;BME280;15019;49.002;8.420;2022-09-17T01:50:15;99993.91;;;11.40;100.00
27587;BME280;15019;49.002;8.420;2022-09-17T01:52:44;99988.66;;;11.58;100.00
27587;BME280;15019;49.002;8.420;2022-09-17T01:55:14;99978.47;;;11.64;100.00
27587;BME280;15019;49.002;8.420;2022-09-17T01:57:47;99989.50;;;11.57;100.00
27587;BME280;15019;49.002;8.420;2022-09-17T02:00:16;99981.88;;;11.60;100.00
27587;BME280;15019;49.002;8.420;2022-09-17T02:05:29;99990.41;;;11.53;100.00
27587;BME280;15019;49.002;8.420;2022-09-17T02:08:09;99979.22;;;11.73;100.00
27587;BME280;15019;49.002;8.420;2022-09-17T02:10:41;99980.91;;;11.70;100.00
27587;BME280;15019;49.002;8.420;2022-09-17T02:13:16;99974.97;;;11.72;100.00
27587;BME280;15019;49.002;8.420;2022-09-17T02:15:48;99978.38;;;11.73;100.00
27587;BME280;15019;49.002;8.420;2022-09-17T02:18:37;99983.47;;;11.70;100.00
27587;BME280;15019;49.002;8.420;2022-09-17T02:21:19;99989.38;;;11.72;100.00
27587;BME280;15019;49.002;8.420;2022-09-17T02:23:51;99986.84;;;11.75;100.00
27587;BME280;15019;49.002;8.420;2022-09-17T02:26:21;99990.25;;;11.68;100.00
27587;BME280;15019;49.002;8.420;2022-09-17T02:28:56;99986.09;;;11.62;100.00
27587;BME280;15019;49.002;8.420;2022-09-17T02:31:26;99987.91;;;11.45;100.00
27587;BME280;15019;49.002;8.420;2022-09-17T02:33:57;99978.66;;;11.40;100.00
27587;BME280;15019;49.002;8.420;2022-09-17T02:36:26;99975.44;;;11.19;100.00
27587;BME280;15019;49.002;8.420;2022-09-17T02:38:58;99975.47;;;11.16;100.00
27587;BME280;15019;49.002;8.420;2022-09-17T02:41:33;99967.09;;;11.05;100.00
27587;BME280;15019;49.002;8.420;2022-09-17T02:44:13;99971.44;;;10.86;100.00
27587;BME280;15019;49.002;8.420;2022-09-17T02:46:56;99970.59;;;10.89;100.00
27587;BME280;15019;49.002;8.420;2022-09-17T02:52:48;99977.38;;;10.87;100.00
27587;BME280;15019;49.002;8.420;2022-09-17T02:58:31;99975.75;;;10.77;100.00
27587;BME280;15019;49.002;8.420;2022-09-17T03:01:03;99979.13;;;10.76;100.00
27587;BME280;15019;49.002;8.420;2022-09-17T03:03:36;99979.97;;;10.75;100.00
27587;BME280;15019;49.002;8.420;2022-09-17T03:06:03;99980.03;;;10.62;100.00
27587;BME280;15019;49.002;8.420;2022-09-17T03:08:33;99977.50;;;10.66;100.00
27587;BME280;15019;49.002;8.420;2022-09-17T03:10:59;99986.00;;;10.55;100.00
27587;BME280;15019;49.002;8.420;2022-09-17T03:13:25;99982.63;;;10.50;100.00
27587;BME280;15019;49.002;8.420;2022-09-17T03:15:50;99986.84;;;10.56;100.00
27587;BME280;15019;49.002;8.420;2022-09-17T03:18:16;99992.75;;;10.56;100.00
27587;BME280;15019;49.002;8.420;2022-09-17T03:20:41;100000.41;;;10.44;100.00
27587;BME280;15019;49.002;8.420;2022-09-17T03:23:06;99991.09;;;10.49;100.00
27587;BME280;15019;49.002;8.420;2022-09-17T03:25:32;99997.88;;;10.47;100.00
27587;BME280;15019;49.002;8.420;2022-09-17T03:27:57;100004.59;;;10.54;100.00
27587;BME280;15019;49.002;8.420;2022-09-17T03:30:22;100003.78;;;10.40;100.00
27587;BME280;15019;49.002;8.420;2022-09-17T03:32:47;100002.94;;;10.41;100.00
27587;BME280;15019;49.002;8.420;2022-09-17T03:35:13;100008.81;;;10.49;100.00
27587;BME280;15019;49.002;8.420;2022-09-17T03:37:38;100013.00;;;10.59;100.00
27587;BME280;15019;49.002;8.420;2022-09-17T03:40:04;100006.19;;;10.72;100.00
27587;BME280;15019;49.002;8.420;2022-09-17T03:42:30;100016.41;;;10.57;100.00
27587;BME280;15019;49.002;8.420;2022-09-17T03:44:55;100020.69;;;10.47;100.00
27587;BME280;15019;49.002;8.420;2022-09-17T03:47:20;100016.47;;;10.46;100.00
27587;BME280;15019;49.002;8.420;2022-09-17T03:49:46;100013.88;;;10.52;100.00
27587;BME280;15019;49.002;8.420;2022-09-17T03:52:11;100013.03;;;10.53;100.00
27587;BME280;15019;49.002;8.420;2022-09-17T03:54:39;100012.25;;;10.45;100.00
27587;BME280;15019;49.002;8.420;2022-09-17T03:57:04;100013.94;;;10.43;100.00
27587;BME280;15019;49.002;8.420;2022-09-17T03:59:30;100015.66;;;10.38;100.00
27587;BME280;15019;49.002;8.420;2022-09-17T04:01:55;100016.47;;;10.46;100.00
27587;BME280;15019;49.002;8.420;2022-09-17T04:04:20;100008.81;;;10.51;100.00
27587;BME280;15019;49.002;8.420;2022-09-17T04:06:46;100005.44;;;10.58;100.00
27587;BME280;15019;49.002;8.420;2022-09-17T04:09:11;100002.91;;;10.50;100.00
27587;BME280;15019;49.002;8.420;2022-09-17T04:11:36;100008.03;;;10.44;100.00
27587;BME280;15019;49.002;8.420;2022-09-17T04:14:02;100007.19;;;10.42;100.00
27587;BME280;15019;49.002;8.420;2022-09-17T04:16:27;99997.91;;;10.32;100.00
27587;BME280;15019;49.002;8.420;2022-09-17T04:18:52;100025.78;;;10.38;100.00
27587;BME280;15019;49.002;8.420;2022-09-17T04:21:18;100031.72;;;10.34;100.00
27587;BME280;15019;49.002;8.420;2022-09-17T04:23:43;100023.25;;;10.35;100.00
27587;BME280;15019;49.002;8.420;2022-09-17T04:26:08;100024.91;;;10.45;100.00
27587;BME280;15019;49.002;8.420;2022-09-17T04:28:34;100036.72;;;10.49;100.00
27587;BME280;15019;49.002;8.420;2022-09-17T04:30:59;100035.91;;;10.40;100.00
27587;BME280;15019;49.002;8.420;2022-09-17T04:33:24;100031.59;;;10.61;100.00
27587;BME280;15019;49.002;8.420;2022-09-17T04:35:53;100025.63;;;10.75;100.00
27587;BME280;15019;49.002;8.420;2022-09-17T04:38:18;100026.56;;;10.58;100.00
27587;BME280;15019;49.002;8.420;2022-09-17T04:40:44;100037.59;;;10.47;100.00
27587;BME280;15019;49.002;8.420;2022-09-17T04:43:09;100040.16;;;10.36;100.00
27587;BME280;15019;49.002;8.420;2022-09-17T04:45:35;100030.03;;;10.33;100.00
27587;BME280;15019;49.002;8.420;2022-09-17T04:48:01;100036.78;;;10.34;100.00
27587;BME280;15019;49.002;8.420;2022-09-17T04:50:26;100038.47;;;10.32;100.00
27587;BME280;15019;49.002;8.420;2022-09-17T04:52:53;100039.31;;;10.28;100.00
27587;BME280;15019;49.002;8.420;2022-09-17T04:55:18;100037.59;;;10.48;100.00
27587;BME280;15019;49.002;8.420;2022-09-17T04:57:52;100046.91;;;10.34;100.00
27587;BME280;15019;49.002;8.420;2022-09-17T05:00:18;100040.13;;;10.39;100.00
27587;BME280;15019;49.002;8.420;2022-09-17T05:02:47;100039.28;;;10.40;100.00
27587;BME280;15019;49.002;8.420;2022-09-17T05:05:14;100051.91;;;10.49;100.00
27587;BME280;15019;49.002;8.420;2022-09-17T05:07:41;100053.63;;;10.41;100.00
27587;BME280;15019;49.002;8.420;2022-09-17T05:10:12;100055.31;;;10.42;100.00
27587;BME280;15019;49.002;8.420;2022-09-17T05:12:39;100056.16;;;10.44;100.00
27587;BME280;15019;49.002;8.420;2022-09-17T05:15:07;100060.41;;;10.45;100.00
27587;BME280;15019;49.002;8.420;2022-09-17T05:17:33;100065.47;;;10.42;100.00
27587;BME280;15019;49.002;8.420;2022-09-17T05:19:58;100067.16;;;10.46;100.00
27587;BME280;15019;49.002;8.420;2022-09-17T05:22:23;100073.94;;;10.31;100.00
27587;BME280;15019;49.002;8.420;2022-09-17T05:24:49;100068.81;;;10.50;100.00
27587;BME280;15019;49.002;8.420;2022-09-17T05:27:14;100065.44;;;10.51;100.00
27587;BME280;15019;49.002;8.420;2022-09-17T05:29:39;100071.31;;;10.64;100.00
27587;BME280;15019;49.002;8.420;2022-09-17T05:32:05;100073.81;;;10.72;100.00
27587;BME280;15019;49.002;8.420;2022-09-17T05:34:31;100070.47;;;10.63;100.00
27587;BME280;15019;49.002;8.420;2022-09-17T05:36:56;100073.84;;;10.66;100.00
27587;BME280;15019;49.002;8.420;2022-09-17T05:39:22;100081.44;;;10.66;100.00
27587;BME280;15019;49.002;8.420;2022-09-17T05:41:47;100079.72;;;10.77;100.00
27587;BME280;15019;49.002;8.420;2022-09-17T05:44:13;100084.78;;;10.78;100.00
27587;BME280;15019;49.002;8.420;2022-09-17T05:46:38;100085.59;;;10.82;100.00
27587;BME280;15019;49.002;8.420;2022-09-17T05:49:03;100094.22;;;10.35;100.00
27587;BME280;15019;49.002;8.420;2022-09-17T05:51:28;100093.34;;;10.45;100.00
27587;BME280;15019;49.002;8.420;2022-09-17T05:53:54;100092.50;;;10.40;100.00
27587;BME280;15019;49.002;8.420;2022-09-17T05:56:19;100083.25;;;10.27;100.00
27587;BME280;15019;49.002;8.420;2022-09-17T05:58:44;100093.41;;;10.27;100.00
27587;BME280;15019;49.002;8.420;2022-09-17T06:01:10;100099.28;;;9.99;100.00
27587;BME280;15019;49.002;8.420;2022-09-17T06:03:35;100100.16;;;9.99;100.00
27587;BME280;15019;49.002;8.420;2022-09-17T06:06:00;100097.63;;;9.91;100.00
27587;BME280;15019;49.002;8.420;2022-09-17T06:08:27;100108.59;;;9.94;100.00
27587;BME280;15019;49.002;8.420;2022-09-17T06:10:52;100106.91;;;9.96;100.00
27587;BME280;15019;49.002;8.420;2022-09-17T06:13:19;100110.28;;;9.88;100.00
27587;BME280;15019;49.002;8.420;2022-09-17T06:15:52;100108.59;;;9.80;100.00
27587;BME280;15019;49.002;8.420;2022-09-17T06:18:17;100107.75;;;9.81;100.00
27587;BME280;15019;49.002;8.420;2022-09-17T06:21:01;100117.88;;;9.79;100.00
27587;BME280;15019;49.002;8.420;2022-09-17T06:23:30;100116.19;;;9.81;100.00
27587;BME280;15019;49.002;8.420;2022-09-17T06:25:57;100120.41;;;9.81;100.00
27587;BME280;15019;49.002;8.420;2022-09-17T06:28:24;100121.25;;;9.97;100.00
27587;BME280;15019;49.002;8.420;2022-09-17T06:30:50;100110.28;;;9.90;100.00
27587;BME280;15019;49.002;8.420;2022-09-17T06:33:15;100117.88;;;10.04;100.00
27587;BME280;15019;49.002;8.420;2022-09-17T06:35:40;100115.31;;;10.40;100.00
27587;BME280;15019;49.002;8.420;2022-09-17T06:38:06;100112.81;;;10.34;100.00
27587;BME280;15019;49.002;8.420;2022-09-17T06:40:31;100114.47;;;10.29;100.00
27587;BME280;15019;49.002;8.420;2022-09-17T06:42:57;100112.81;;;10.22;100.00
27587;BME280;15019;49.002;8.420;2022-09-17T06:45:23;100110.28;;;10.04;100.00
27587;BME280;15019;49.002;8.420;2022-09-17T06:47:48;100119.56;;;10.14;100.00
27587;BME280;15019;49.002;8.420;2022-09-17T06:50:13;100119.56;;;10.34;100.00
27587;BME280;15019;49.002;8.420;2022-09-17T06:52:46;100127.97;;;10.40;100.00
27587;BME280;15019;49.002;8.420;2022-09-17T06:55:12;100119.50;;;10.50;100.00
27587;BME280;15019;49.002;8.420;2022-09-17T06:57:37;100119.50;;;10.56;100.00
27587;BME280;15019;49.002;8.420;2022-09-17T07:00:03;100126.28;;;10.57;100.00
27587;BME280;15019;49.002;8.420;2022-09-17T07:02:31;100125.41;;;10.51;100.00
27587;BME280;15019;49.002;8.420;2022-09-17T07:04:57;100125.41;;;10.51;100.00
27587;BME280;15019;49.002;8.420;2022-09-17T07:07:25;100122.03;;;10.58;100.00
27587;BME280;15019;49.002;8.420;2022-09-17T07:09:50;100122.88;;;10.49;100.00
27587;BME280;15019;49.002;8.420;2022-09-17T07:12:19;100125.44;;;10.58;100.00
27587;BME280;15019;49.002;8.420;2022-09-17T07:14:45;100136.38;;;10.63;100.00
27587;BME280;15019;49.002;8.420;2022-09-17T07:17:14;100131.31;;;10.67;100.00
27587;BME280;15019;49.002;8.420;2022-09-17T07:19:39;100131.25;;;10.82;100.00
27587;BME280;15019;49.002;8.420;2022-09-17T07:22:05;100127.84;;;10.86;100.00
27587;BME280;15019;49.002;8.420;2022-09-17T07:24:33;100136.25;;;10.97;100.00
27587;BME280;15019;49.002;8.420;2022-09-17T07:27:00;100139.66;;;10.93;100.00
27587;BME280;15019;49.002;8.420;2022-09-17T07:29:28;100137.19;;;10.75;100.00
27587;BME280;15019;49.002;8.420;2022-09-17T07:31:56;100134.53;;;11.05;100.00
27587;BME280;15019;49.002;8.420;2022-09-17T07:34:21;100142.94;;;11.19;100.00
27587;BME280;15019;49.002;8.420;2022-09-17T07:36:46;100141.97;;;11.40;100.00
27587;BME280;15019;49.002;8.420;2022-09-17T07:39:12;100151.88;;;11.81;100.00
27587;BME280;15019;49.002;8.420;2022-09-17T07:41:40;100151.56;;;12.19;100.00
27587;BME280;15019;49.002;8.420;2022-09-17T07:44:05;100151.56;;;12.19;100.00
27587;BME280;15019;49.002;8.420;2022-09-17T07:46:30;100155.78;;;12.19;100.00
27587;BME280;15019;49.002;8.420;2022-09-17T07:48:56;100154.06;;;12.25;100.00
27587;BME280;15019;49.002;8.420;2022-09-17T07:51:24;100159.16;;;12.24;100.00
27587;BME280;15019;49.002;8.420;2022-09-17T07:53:49;100157.47;;;12.23;100.00
27587;BME280;15019;49.002;8.420;2022-09-17T07:56:15;100165.53;;;12.64;100.00
27587;BME280;15019;49.002;8.420;2022-09-17T07:58:40;100156.47;;;12.39;100.00
27587;BME280;15019;49.002;8.420;2022-09-17T08:01:07;100153.97;;;12.36;100.00
27587;BME280;15019;49.002;8.420;2022-09-17T08:03:37;100159.25;;;12.15;100.00
27587;BME280;15019;49.002;8.420;2022-09-17T08:06:10;100167.31;;;12.58;100.00
27587;BME280;15019;49.002;8.420;2022-09-17T08:08:37;100163.31;;;12.32;100.00
27587;BME280;15019;49.002;8.420;2022-09-17T08:11:04;100162.34;;;12.44;100.00
27587;BME280;15019;49.002;8.420;2022-09-17T08:13:30;100155.06;;;12.07;100.00
27587;BME280;15019;49.002;8.420;2022-09-17T08:16:00;100153.31;;;12.13;100.00
27587;BME280;15019;49.002;8.420;2022-09-17T08:18:27;100157.53;;;12.17;100.00
27587;BME280;15019;49.002;8.420;2022-09-17T08:20:56;100157.28;;;12.41;100.00
27587;BME280;15019;49.002;8.420;2022-09-17T08:23:21;100165.56;;;12.61;100.00
27587;BME280;15019;49.002;8.420;2022-09-17T08:25:54;100163.81;;;12.65;100.00
27587;BME280;15019;49.002;8.420;2022-09-17T08:28:20;100178.22;;;12.69;100.00
27587;BME280;15019;49.002;8.420;2022-09-17T08:30:49;100170.72;;;12.55;100.00
27587;BME280;15019;49.002;8.420;2022-09-17T08:33:15;100174.78;;;12.71;100.00
27587;BME280;15019;49.002;8.420;2022-09-17T08:35:40;100180.19;;;13.19;100.00
27587;BME280;15019;49.002;8.420;2022-09-17T08:38:07;100175.63;;;13.44;100.00
27587;BME280;15019;49.002;8.420;2022-09-17T08:40:41;100169.50;;;12.90;100.00
27587;BME280;15019;49.002;8.420;2022-09-17T08:43:13;100178.75;;;12.97;100.00
27587;BME280;15019;49.002;8.420;2022-09-17T08:45:41;100177.84;;;13.01;100.00
27587;BME280;15019;49.002;8.420;2022-09-17T08:48:11;100192.03;;;13.23;100.00
27587;BME280;15019;49.002;8.420;2022-09-17T08:50:40;100190.59;;;12.98;100.00
27587;BME280;15019;49.002;8.420;2022-09-17T08:53:39;100185.59;;;12.92;100.00
27587;BME280;15019;49.002;8.420;2022-09-17T08:56:15;100180.44;;;12.95;100.00
27587;BME280;15019;49.002;8.420;2022-09-17T09:03:49;100192.09;;;13.17;100.00
27587;BME280;15019;49.002;8.420;2022-09-17T09:06:18;100182.47;;;13.40;100.00
27587;BME280;15019;49.002;8.420;2022-09-17T09:08:50;100177.78;;;13.04;100.00
27587;BME280;15019;49.002;8.420;2022-09-17T09:11:27;100178.72;;;13.00;100.00
27587;BME280;15019;49.002;8.420;2022-09-17T09:13:58;100175.19;;;13.11;100.00
27587;BME280;15019;49.002;8.420;2022-09-17T09:16:25;100173.09;;;13.42;100.00
27587;BME280;15019;49.002;8.420;2022-09-17T09:18:55;100173.06;;;14.02;99.89
27587;BME280;15019;49.002;8.420;2022-09-17T09:22:39;100170.50;;;14.02;99.20
27587;BME280;15019;49.002;8.420;2022-09-17T09:24:44;100172.84;;;14.14;99.23
27587;BME280;15019;49.002;8.420;2022-09-17T09:27:23;100171.91;;;14.20;99.64
27587;BME280;15019;49.002;8.420;2022-09-17T09:30:07;100177.69;;;13.77;94.12
27587;BME280;15019;49.002;8.420;2022-09-17T09:35:15;100176.75;;;13.83;93.61
27587;BME280;15019;49.002;8.420;2022-09-17T09:38:00;100169.88;;;13.88;94.32
27587;BME280;15019;49.002;8.420;2022-09-17T09:43:24;100180.34;;;14.23;96.38
27587;BME280;15019;49.002;8.420;2022-09-17T09:46:07;100178.41;;;14.38;94.15
27587;BME280;15019;49.002;8.420;2022-09-17T09:48:52;100171.28;;;14.58;90.41
27587;BME280;15019;49.002;8.420;2022-09-17T09:59:17;100175.13;;;15.99;84.50
27587;BME280;15019;49.002;8.420;2022-09-17T10:01:43;100164.22;;;15.55;90.40
27587;BME280;15019;49.002;8.420;2022-09-17T10:04:24;100164.19;;;16.26;87.01
27587;BME280;15019;49.002;8.420;2022-09-17T10:06:52;100172.72;;;16.59;83.80
27587;BME280;15019;49.002;8.420;2022-09-17T10:09:20;100172.22;;;17.08;79.41
27587;BME280;15019;49.002;8.420;2022-09-17T10:12:18;100168.53;;;16.23;83.80
27587;BME280;15019;49.002;8.420;2022-09-17T10:14:46;100162.75;;;16.16;82.38
27587;BME280;15019;49.002;8.420;2022-09-17T10:17:20;100158.38;;;15.86;86.58
27587;BME280;15019;49.002;8.420;2022-09-17T10:20:11;100162.59;;;15.50;88.04
27587;BME280;15019;49.002;8.420;2022-09-17T10:22:38;100161.34;;;15.29;88.43
27587;BME280;15019;49.002;8.420;2022-09-17T10:25:06;100161.94;;;15.01;87.99
27587;BME280;15019;49.002;8.420;2022-09-17T10:27:44;100154.94;;;15.10;88.50
27587;BME280;15019;49.002;8.420;2022-09-17T10:32:36;100149.00;;;15.09;87.32
27587;BME280;15019;49.002;8.420;2022-09-17T10:35:04;100149.69;;;15.16;89.08
27587;BME280;15019;49.002;8.420;2022-09-17T10:37:44;100136.84;;;14.80;90.40
27587;BME280;15019;49.002;8.420;2022-09-17T10:40:30;100143.66;;;16.29;83.61
27587;BME280;15019;49.002;8.420;2022-09-17T10:43:17;100137.00;;;16.55;84.76
27587;BME280;15019;49.002;8.420;2022-09-17T10:45:45;100136.84;;;15.59;83.68
27587;BME280;15019;49.002;8.420;2022-09-17T10:48:19;100126.28;;;15.74;79.81
27587;BME280;15019;49.002;8.420;2022-09-17T10:50:51;100135.13;;;15.59;75.89
27587;BME280;15019;49.002;8.420;2022-09-17T10:53:18;100133.41;;;15.61;77.68
27587;BME280;15019;49.002;8.420;2022-09-17T11:12:27;100132.59;;;15.59;89.44
27587;BME280;15019;49.002;8.420;2022-09-17T11:20:55;100125.78;;;14.80;89.43
27587;BME280;15019;49.002;8.420;2022-09-17T11:26:29;100117.09;;;14.44;89.14
27587;BME280;15019;49.002;8.420;2022-09-17T11:34:34;100111.03;;;14.51;87.44
27587;BME280;15019;49.002;8.420;2022-09-17T11:37:24;100111.91;;;14.50;89.36
27587;BME280;15019;49.002;8.420;2022-09-17T11:39:57;100103.44;;;14.48;83.09
27587;BME280;15019;49.002;8.420;2022-09-17T11:42:31;100113.78;;;14.83;84.49
27587;BME280;15019;49.002;8.420;2022-09-17T11:45:03;100108.72;;;15.22;79.84
27587;BME280;15019;49.002;8.420;2022-09-17T11:47:43;100104.72;;;15.47;81.54
27587;BME280;15019;49.002;8.420;2022-09-17T11:50:24;100116.63;;;15.48;78.63
27587;BME280;15019;49.002;8.420;2022-09-17T11:52:59;100105.56;;;15.11;79.11
27587;BME280;15019;49.002;8.420;2022-09-17T11:56:04;100135.78;;;14.90;79.84
27587;BME280;15019;49.002;8.420;2022-09-17T11:58:33;100149.31;;;14.51;82.28
27587;BME280;15019;49.002;8.420;2022-09-17T12:01:04;100174.22;;;13.83;97.16
27587;BME280;15019;49.002;8.420;2022-09-17T12:03:34;100183.91;;;12.92;100.00
27587;BME280;15019;49.002;8.420;2022-09-17T12:06:19;100191.19;;;12.40;100.00
27587;BME280;15019;49.002;8.420;2022-09-17T12:08:53;100178.13;;;11.79;100.00
27587;BME280;15019;49.002;8.420;2022-09-17T12:11:32;100169.66;;;11.84;100.00
27587;BME280;15019;49.002;8.420;2022-09-17T12:14:22;100162.88;;;11.85;100.00
27587;BME280;15019;49.002;8.420;2022-09-17T12:16:52;100175.44;;;11.98;100.00
27587;BME280;15019;49.002;8.420;2022-09-17T12:19:38;100164.56;;;11.81;100.00
27587;BME280;15019;49.002;8.420;2022-09-17T12:22:09;100156.63;;;12.22;100.00
27587;BME280;15019;49.002;8.420;2022-09-17T12:24:37;100151.72;;;11.98;100.00
27587;BME280;15019;49.002;8.420;2022-09-17T12:30:05;100148.69;;;12.53;100.00
27587;BME280;15019;49.002;8.420;2022-09-17T12:35:19;100135.09;;;12.55;100.00
27587;BME280;15019;49.002;8.420;2022-09-17T12:40:37;100133.03;;;12.91;100.00
27587;BME280;15019;49.002;8.420;2022-09-17T12:59:39;100124.06;;;13.28;100.00
27587;BME280;15019;49.002;8.420;2022-09-17T13:02:24;100115.72;;;13.77;100.00
27587;BME280;15019;49.002;8.420;2022-09-17T13:11:39;100126.91;;;14.65;100.00
27587;BME280;15019;49.002;8.420;2022-09-17T13:16:42;100121.84;;;14.62;100.00
27587;BME280;15019;49.002;8.420;2022-09-17T13:19:22;100112.78;;;14.49;100.00
27587;BME280;15019;49.002;8.420;2022-09-17T13:21:57;100096.34;;;14.62;100.00
27587;BME280;15019;49.002;8.420;2022-09-17T13:24:25;100103.19;;;14.61;100.00
27587;BME280;15019;49.002;8.420;2022-09-17T13:26:53;100098.16;;;14.57;100.00
27587;BME280;15019;49.002;8.420;2022-09-17T13:37:31;100088.09;;;14.51;100.00
27587;BME280;15019;49.002;8.420;2022-09-17T13:39:59;100082.97;;;14.51;100.00
27587;BME280;15019;49.002;8.420;2022-09-17T13:42:28;100084.63;;;14.52;100.00
27587;BME280;15019;49.002;8.420;2022-09-17T13:45:08;100087.81;;;14.63;100.00
27587;BME280;15019;49.002;8.420;2022-09-17T13:47:39;100080.69;;;14.80;100.00
27587;BME280;15019;49.002;8.420;2022-09-17T13:50:20;100086.28;;;14.96;100.00
27587;BME280;15019;49.002;8.420;2022-09-17T13:52:49;100084.53;;;14.98;100.00
27587;BME280;15019;49.002;8.420;2022-09-17T13:55:34;100076.81;;;15.02;100.00
27587;BME280;15019;49.002;8.420;2022-09-17T13:58:12;100078.06;;;15.22;100.00
27587;BME280;15019;49.002;8.420;2022-09-17T14:11:37;100076.38;;;15.21;87.42
27587;BME280;15019;49.002;8.420;2022-09-17T14:18:59;100084.97;;;15.17;88.82
27587;BME280;15019;49.002;8.420;2022-09-17T14:21:30;100081.22;;;14.94;88.81
27587;BME280;15019;49.002;8.420;2022-09-17T14:24:18;100077.75;;;14.97;100.00
27587;BME280;15019;49.002;8.420;2022-09-17T14:32:12;100083.44;;;14.71;98.38
27587;BME280;15019;49.002;8.420;2022-09-17T14:34:38;100079.38;;;14.61;97.02
27587;BME280;15019;49.002;8.420;2022-09-17T14:37:03;100078.75;;;14.91;96.91
27587;BME280;15019;49.002;8.420;2022-09-17T14:39:36;100079.75;;;15.23;97.97
27587;BME280;15019;49.002;8.420;2022-09-17T14:42:04;100077.56;;;15.43;95.73
27587;BME280;15019;49.002;8.420;2022-09-17T14:44:34;100072.25;;;15.52;89.35
27587;BME280;15019;49.002;8.420;2022-09-17T14:47:02;100073.66;;;15.65;89.89
27587;BME280;15019;49.002;8.420;2022-09-17T14:49:35;100068.88;;;15.50;85.04
27587;BME280;15019;49.002;8.420;2022-09-17T14:52:23;100070.78;;;15.42;83.94
27587;BME280;15019;49.002;8.420;2022-09-17T14:55:14;100060.84;;;15.30;79.72
27587;BME280;15019;49.002;8.420;2022-09-17T14:57:40;100073.16;;;15.13;86.65
27587;BME280;15019;49.002;8.420;2022-09-17T15:00:15;100078.41;;;15.07;87.60
27587;BME280;15019;49.002;8.420;2022-09-17T15:02:41;100082.22;;;14.87;86.25
27587;BME280;15019;49.002;8.420;2022-09-17T15:05:18;100085.59;;;14.89;86.83
27587;BME280;15019;49.002;8.420;2022-09-17T15:07:45;100079.19;;;14.70;85.40
27587;BME280;15019;49.002;8.420;2022-09-17T15:10:17;100076.41;;;14.81;81.74
27587;BME280;15019;49.002;8.420;2022-09-17T15:12:44;100078.84;;;14.85;85.15
27587;BME280;15019;49.002;8.420;2022-09-17T15:15:19;100084.91;;;14.81;85.07
27587;BME280;15019;49.002;8.420;2022-09-17T15:17:47;100076.22;;;14.90;86.90
27587;BME280;15019;49.002;8.420;2022-09-17T15:20:18;100082.34;;;14.81;85.21
27587;BME280;15019;49.002;8.420;2022-09-17T15:22:53;100077.50;;;14.69;83.14
27587;BME280;15019;49.002;8.420;2022-09-17T15:25:22;100080.03;;;14.71;83.83
27587;BME280;15019;49.002;8.420;2022-09-17T15:27:47;100079.28;;;14.64;86.46
27587;BME280;15019;49.002;8.420;2022-09-17T15:30:18;100079.19;;;14.70;91.29
27587;BME280;15019;49.002;8.420;2022-09-17T15:32:54;100079.09;;;14.73;92.49
27587;BME280;15019;49.002;8.420;2022-09-17T15:35:31;100074.63;;;14.84;90.77